sensor_id;sensor_type;location;lat;lon;timestamp;P1;durP1;ratioP1;P2;durP2;ratioP2
3993;SDS011;2011;48.238;13.948;2023-09-08T00:02:23;21.10;;;6.67;;
3993;SDS011;2011;48.238;13.948;2023-09-08T00:04:51;12.60;;;6.03;;
3993;SDS011;2011;48.238;13.948;2023-09-08T00:07:18;11.00;;;6.00;;
3993;SDS011;2011;48.238;13.948;2023-09-08T00:09:47;16.40;;;6.83;;
3993;SDS011;2011;48.238;13.948;2023-09-08T00:12:14;10.87;;;5.97;;
3993;SDS011;2011;48.238;13.948;2023-09-08T00:14:41;11.77;;;5.97;;
3993;SDS011;2011;48.238;13.948;2023-09-08T00:17:09;10.07;;;5.47;;
3993;SDS011;2011;48.238;13.948;2023-09-08T00:19:36;10.57;;;5.77;;
3993;SDS011;2011;48.238;13.948;2023-09-08T00:22:03;20.20;;;6.97;;
3993;SDS011;2011;48.238;13.948;2023-09-08T00:24:32;13.60;;;6.90;;
3993;SDS011;2011;48.238;13.948;2023-09-08T00:27:01;13.50;;;5.90;;
3993;SDS011;2011;48.238;13.948;2023-09-08T00:29:28;17.00;;;6.60;;
3993;SDS011;2011;48.238;13.948;2023-09-08T00:31:55;12.17;;;5.87;;
3993;SDS011;2011;48.238;13.948;2023-09-08T00:34:22;13.03;;;6.20;;
3993;SDS011;2011;48.238;13.948;2023-09-08T00:36:49;12.03;;;6.73;;
3993;SDS011;2011;48.238;13.948;2023-09-08T00:39:16;13.63;;;6.80;;
3993;SDS011;2011;48.238;13.948;2023-09-08T00:41:43;11.00;;;6.43;;
3993;SDS011;2011;48.238;13.948;2023-09-08T00:44:11;11.73;;;6.87;;
3993;SDS011;2011;48.238;13.948;2023-09-08T00:46:39;10.90;;;6.83;;
3993;SDS011;2011;48.238;13.948;2023-09-08T00:49:06;14.40;;;5.90;;
3993;SDS011;2011;48.238;13.948;2023-09-08T00:51:34;10.40;;;5.50;;
3993;SDS011;2011;48.238;13.948;2023-09-08T00:54:03;25.73;;;5.87;;
3993;SDS011;2011;48.238;13.948;2023-09-08T00:56:31;19.60;;;5.70;;
3993;SDS011;2011;48.238;13.948;2023-09-08T00:59:00;18.87;;;7.07;;
3993;SDS011;2011;48.238;13.948;2023-09-08T01:01:29;12.93;;;6.67;;
3993;SDS011;2011;48.238;13.948;2023-09-08T01:03:56;14.23;;;6.00;;
3993;SDS011;2011;48.238;13.948;2023-09-08T01:06:23;10.10;;;5.83;;
3993;SDS011;2011;48.238;13.948;2023-09-08T01:08:50;11.93;;;5.80;;
3993;SDS011;2011;48.238;13.948;2023-09-08T01:11:18;13.60;;;5.73;;
3993;SDS011;2011;48.238;13.948;2023-09-08T01:13:46;19.00;;;6.30;;
3993;SDS011;2011;48.238;13.948;2023-09-08T01:16:13;13.47;;;6.73;;
3993;SDS011;2011;48.238;13.948;2023-09-08T01:18:41;10.00;;;5.93;;
3993;SDS011;2011;48.238;13.948;2023-09-08T01:21:25;17.43;;;6.00;;
3993;SDS011;2011;48.238;13.948;2023-09-08T01:24:17;11.47;;;6.13;;
3993;SDS011;2011;48.238;13.948;2023-09-08T01:26:58;12.73;;;6.40;;
3993;SDS011;2011;48.238;13.948;2023-09-08T01:29:26;14.03;;;6.70;;
3993;SDS011;2011;48.238;13.948;2023-09-08T01:31:54;10.30;;;6.20;;
3993;SDS011;2011;48.238;13.948;2023-09-08T01:34:21;10.23;;;6.33;;
3993;SDS011;2011;48.238;13.948;2023-09-08T01:36:48;11.83;;;6.57;;
3993;SDS011;2011;48.238;13.948;2023-09-08T01:39:15;13.83;;;5.77;;
3993;SDS011;2011;48.238;13.948;2023-09-08T01:41:42;14.07;;;5.70;;
3993;SDS011;2011;48.238;13.948;2023-09-08T01:44:11;13.23;;;6.83;;
3993;SDS011;2011;48.238;13.948;2023-09-08T01:46:38;10.37;;;5.83;;
3993;SDS011;2011;48.238;13.948;2023-09-08T01:49:06;14.07;;;6.20;;
3993;SDS011;2011;48.238;13.948;2023-09-08T01:51:33;10.50;;;6.50;;
3993;SDS011;2011;48.238;13.948;2023-09-08T01:54:00;12.43;;;6.60;;
3993;SDS011;2011;48.238;13.948;2023-09-08T01:56:27;11.93;;;6.23;;
3993;SDS011;2011;48.238;13.948;2023-09-08T01:58:54;10.87;;;6.77;;
3993;SDS011;2011;48.238;13.948;2023-09-08T02:01:22;14.10;;;5.80;;
3993;SDS011;2011;48.238;13.948;2023-09-08T02:03:49;10.47;;;6.13;;
3993;SDS011;2011;48.238;13.948;2023-09-08T02:06:16;12.70;;;6.30;;
3993;SDS011;2011;48.238;13.948;2023-09-08T02:08:43;11.20;;;6.43;;
3993;SDS011;2011;48.238;13.948;2023-09-08T02:11:10;9.70;;;5.80;;
3993;SDS011;2011;48.238;13.948;2023-09-08T02:13:38;16.53;;;6.50;;
3993;SDS011;2011;48.238;13.948;2023-09-08T02:16:05;10.00;;;6.40;;
3993;SDS011;2011;48.238;13.948;2023-09-08T02:18:33;11.30;;;6.70;;
3993;SDS011;2011;48.238;13.948;2023-09-08T02:21:00;15.03;;;7.03;;
3993;SDS011;2011;48.238;13.948;2023-09-08T02:23:27;11.10;;;6.63;;
3993;SDS011;2011;48.238;13.948;2023-09-08T02:25:54;9.50;;;6.00;;
3993;SDS011;2011;48.238;13.948;2023-09-08T02:28:21;12.13;;;6.70;;
3993;SDS011;2011;48.238;13.948;2023-09-08T02:30:51;20.73;;;6.50;;
3993;SDS011;2011;48.238;13.948;2023-09-08T02:33:18;9.10;;;5.63;;
3993;SDS011;2011;48.238;13.948;2023-09-08T02:35:47;17.93;;;6.40;;
3993;SDS011;2011;48.238;13.948;2023-09-08T02:38:14;14.00;;;6.90;;
3993;SDS011;2011;48.238;13.948;2023-09-08T02:40:40;18.87;;;6.90;;
3993;SDS011;2011;48.238;13.948;2023-09-08T02:43:07;11.00;;;6.70;;
3993;SDS011;2011;48.238;13.948;2023-09-08T02:45:35;10.20;;;6.50;;
3993;SDS011;2011;48.238;13.948;2023-09-08T02:48:02;10.10;;;6.67;;
3993;SDS011;2011;48.238;13.948;2023-09-08T02:50:30;14.50;;;6.90;;
3993;SDS011;2011;48.238;13.948;2023-09-08T02:52:58;11.90;;;6.60;;
3993;SDS011;2011;48.238;13.948;2023-09-08T02:55:25;12.47;;;6.40;;
3993;SDS011;2011;48.238;13.948;2023-09-08T02:57:52;12.90;;;6.57;;
3993;SDS011;2011;48.238;13.948;2023-09-08T03:00:20;11.73;;;6.50;;
3993;SDS011;2011;48.238;13.948;2023-09-08T03:02:47;15.13;;;7.30;;
3993;SDS011;2011;48.238;13.948;2023-09-08T03:05:14;16.90;;;7.20;;
3993;SDS011;2011;48.238;13.948;2023-09-08T03:07:41;11.43;;;7.70;;
3993;SDS011;2011;48.238;13.948;2023-09-08T03:10:10;13.17;;;7.40;;
3993;SDS011;2011;48.238;13.948;2023-09-08T03:12:37;15.17;;;8.07;;
3993;SDS011;2011;48.238;13.948;2023-09-08T03:15:05;13.50;;;7.17;;
3993;SDS011;2011;48.238;13.948;2023-09-08T03:17:33;12.97;;;6.93;;
3993;SDS011;2011;48.238;13.948;2023-09-08T03:20:00;13.10;;;7.40;;
3993;SDS011;2011;48.238;13.948;2023-09-08T03:22:30;12.87;;;7.30;;
3993;SDS011;2011;48.238;13.948;2023-09-08T03:24:57;12.63;;;6.93;;
3993;SDS011;2011;48.238;13.948;2023-09-08T03:27:25;13.63;;;7.40;;
3993;SDS011;2011;48.238;13.948;2023-09-08T03:29:52;16.30;;;7.37;;
3993;SDS011;2011;48.238;13.948;2023-09-08T03:32:19;20.43;;;7.67;;
3993;SDS011;2011;48.238;13.948;2023-09-08T03:34:46;17.10;;;7.53;;
3993;SDS011;2011;48.238;13.948;2023-09-08T03:37:15;12.93;;;7.30;;
3993;SDS011;2011;48.238;13.948;2023-09-08T03:39:42;13.60;;;7.47;;
3993;SDS011;2011;48.238;13.948;2023-09-08T03:42:09;13.30;;;7.37;;
3993;SDS011;2011;48.238;13.948;2023-09-08T03:44:38;12.60;;;7.07;;
3993;SDS011;2011;48.238;13.948;2023-09-08T03:47:05;12.63;;;7.60;;
3993;SDS011;2011;48.238;13.948;2023-09-08T03:49:32;19.70;;;9.67;;
3993;SDS011;2011;48.238;13.948;2023-09-08T03:51:59;12.97;;;7.70;;
3993;SDS011;2011;48.238;13.948;2023-09-08T03:54:26;18.70;;;7.50;;
3993;SDS011;2011;48.238;13.948;2023-09-08T03:56:53;12.77;;;8.47;;
3993;SDS011;2011;48.238;13.948;2023-09-08T03:59:20;15.40;;;7.00;;
3993;SDS011;2011;48.238;13.948;2023-09-08T04:01:49;16.63;;;8.50;;
3993;SDS011;2011;48.238;13.948;2023-09-08T04:04:15;20.60;;;8.57;;
3993;SDS011;2011;48.238;13.948;2023-09-08T04:06:45;12.33;;;7.90;;
3993;SDS011;2011;48.238;13.948;2023-09-08T04:09:12;12.03;;;7.30;;
3993;SDS011;2011;48.238;13.948;2023-09-08T04:11:39;21.00;;;9.20;;
3993;SDS011;2011;48.238;13.948;2023-09-08T04:14:06;13.30;;;8.63;;
3993;SDS011;2011;48.238;13.948;2023-09-08T04:16:33;17.33;;;9.30;;
3993;SDS011;2011;48.238;13.948;2023-09-08T04:19:01;20.33;;;8.57;;
3993;SDS011;2011;48.238;13.948;2023-09-08T04:21:28;17.13;;;8.60;;
3993;SDS011;2011;48.238;13.948;2023-09-08T04:23:56;12.83;;;8.40;;
3993;SDS011;2011;48.238;13.948;2023-09-08T04:26:23;15.60;;;8.00;;
3993;SDS011;2011;48.238;13.948;2023-09-08T04:28:50;16.27;;;8.70;;
3993;SDS011;2011;48.238;13.948;2023-09-08T04:31:17;16.60;;;8.37;;
3993;SDS011;2011;48.238;13.948;2023-09-08T04:33:44;16.83;;;8.80;;
3993;SDS011;2011;48.238;13.948;2023-09-08T04:36:13;14.47;;;7.93;;
3993;SDS011;2011;48.238;13.948;2023-09-08T04:38:40;15.93;;;7.77;;
3993;SDS011;2011;48.238;13.948;2023-09-08T04:41:07;14.53;;;8.70;;
3993;SDS011;2011;48.238;13.948;2023-09-08T04:43:35;14.13;;;7.60;;
3993;SDS011;2011;48.238;13.948;2023-09-08T04:46:02;17.10;;;9.03;;
3993;SDS011;2011;48.238;13.948;2023-09-08T04:48:29;13.00;;;8.70;;
3993;SDS011;2011;48.238;13.948;2023-09-08T04:50:56;20.27;;;8.03;;
3993;SDS011;2011;48.238;13.948;2023-09-08T04:53:24;15.50;;;8.27;;
3993;SDS011;2011;48.238;13.948;2023-09-08T04:55:51;15.30;;;9.20;;
3993;SDS011;2011;48.238;13.948;2023-09-08T04:58:18;15.93;;;8.93;;
3993;SDS011;2011;48.238;13.948;2023-09-08T05:00:46;13.00;;;7.60;;
3993;SDS011;2011;48.238;13.948;2023-09-08T05:03:13;15.90;;;8.20;;
3993;SDS011;2011;48.238;13.948;2023-09-08T05:05:40;12.73;;;8.60;;
3993;SDS011;2011;48.238;13.948;2023-09-08T05:08:07;14.37;;;7.47;;
3993;SDS011;2011;48.238;13.948;2023-09-08T05:10:35;15.53;;;8.60;;
3993;SDS011;2011;48.238;13.948;2023-09-08T05:13:02;13.63;;;8.40;;
3993;SDS011;2011;48.238;13.948;2023-09-08T05:15:30;15.00;;;8.73;;
3993;SDS011;2011;48.238;13.948;2023-09-08T05:17:57;14.00;;;8.10;;
3993;SDS011;2011;48.238;13.948;2023-09-08T05:20:25;13.67;;;7.57;;
3993;SDS011;2011;48.238;13.948;2023-09-08T05:22:52;12.60;;;7.80;;
3993;SDS011;2011;48.238;13.948;2023-09-08T05:25:19;12.90;;;7.43;;
3993;SDS011;2011;48.238;13.948;2023-09-08T05:27:48;15.70;;;8.43;;
3993;SDS011;2011;48.238;13.948;2023-09-08T05:30:15;16.10;;;7.07;;
3993;SDS011;2011;48.238;13.948;2023-09-08T05:32:42;11.23;;;7.50;;
3993;SDS011;2011;48.238;13.948;2023-09-08T05:35:09;16.90;;;8.00;;
3993;SDS011;2011;48.238;13.948;2023-09-08T05:37:36;19.47;;;7.57;;
3993;SDS011;2011;48.238;13.948;2023-09-08T05:40:03;13.80;;;8.47;;
3993;SDS011;2011;48.238;13.948;2023-09-08T05:42:32;13.87;;;7.80;;
3993;SDS011;2011;48.238;13.948;2023-09-08T05:45:00;9.97;;;6.90;;
3993;SDS011;2011;48.238;13.948;2023-09-08T05:47:27;14.03;;;7.70;;
3993;SDS011;2011;48.238;13.948;2023-09-08T05:49:54;20.40;;;8.40;;
3993;SDS011;2011;48.238;13.948;2023-09-08T05:52:21;14.10;;;8.87;;
3993;SDS011;2011;48.238;13.948;2023-09-08T05:54:48;15.60;;;8.50;;
3993;SDS011;2011;48.238;13.948;2023-09-08T05:57:15;17.60;;;8.13;;
3993;SDS011;2011;48.238;13.948;2023-09-08T05:59:42;24.03;;;8.87;;
3993;SDS011;2011;48.238;13.948;2023-09-08T06:02:11;17.30;;;8.50;;
3993;SDS011;2011;48.238;13.948;2023-09-08T06:04:38;12.50;;;8.10;;
3993;SDS011;2011;48.238;13.948;2023-09-08T06:07:05;14.20;;;8.40;;
3993;SDS011;2011;48.238;13.948;2023-09-08T06:09:32;11.23;;;7.70;;
3993;SDS011;2011;48.238;13.948;2023-09-08T06:11:59;13.33;;;7.70;;
3993;SDS011;2011;48.238;13.948;2023-09-08T06:14:26;11.93;;;7.37;;
3993;SDS011;2011;48.238;13.948;2023-09-08T06:16:53;11.87;;;7.63;;
3993;SDS011;2011;48.238;13.948;2023-09-08T06:19:21;13.43;;;8.43;;
3993;SDS011;2011;48.238;13.948;2023-09-08T06:21:48;19.47;;;7.50;;
3993;SDS011;2011;48.238;13.948;2023-09-08T06:24:15;18.73;;;7.83;;
3993;SDS011;2011;48.238;13.948;2023-09-08T06:26:42;12.87;;;8.00;;
3993;SDS011;2011;48.238;13.948;2023-09-08T06:29:09;15.40;;;8.33;;
3993;SDS011;2011;48.238;13.948;2023-09-08T06:31:37;14.07;;;8.10;;
3993;SDS011;2011;48.238;13.948;2023-09-08T06:34:04;21.30;;;8.20;;
3993;SDS011;2011;48.238;13.948;2023-09-08T06:36:32;21.30;;;8.10;;
3993;SDS011;2011;48.238;13.948;2023-09-08T06:38:59;17.27;;;8.10;;
3993;SDS011;2011;48.238;13.948;2023-09-08T06:41:26;18.73;;;7.60;;
3993;SDS011;2011;48.238;13.948;2023-09-08T06:43:53;15.30;;;8.43;;
3993;SDS011;2011;48.238;13.948;2023-09-08T06:46:20;17.00;;;8.03;;
3993;SDS011;2011;48.238;13.948;2023-09-08T06:48:47;15.60;;;7.57;;
3993;SDS011;2011;48.238;13.948;2023-09-08T06:51:14;11.73;;;7.50;;
3993;SDS011;2011;48.238;13.948;2023-09-08T06:53:43;32.83;;;8.70;;
3993;SDS011;2011;48.238;13.948;2023-09-08T06:56:10;12.07;;;7.67;;
3993;SDS011;2011;48.238;13.948;2023-09-08T06:58:38;16.40;;;7.07;;
3993;SDS011;2011;48.238;13.948;2023-09-08T07:01:05;13.03;;;7.33;;
3993;SDS011;2011;48.238;13.948;2023-09-08T07:03:32;12.63;;;7.50;;
3993;SDS011;2011;48.238;13.948;2023-09-08T07:06:02;13.03;;;7.27;;
3993;SDS011;2011;48.238;13.948;2023-09-08T07:08:29;16.23;;;7.77;;
3993;SDS011;2011;48.238;13.948;2023-09-08T07:10:57;11.77;;;7.73;;
3993;SDS011;2011;48.238;13.948;2023-09-08T07:13:24;12.47;;;8.10;;
3993;SDS011;2011;48.238;13.948;2023-09-08T07:15:51;11.70;;;6.90;;
3993;SDS011;2011;48.238;13.948;2023-09-08T07:18:18;11.90;;;6.50;;
3993;SDS011;2011;48.238;13.948;2023-09-08T07:20:46;15.83;;;8.20;;
3993;SDS011;2011;48.238;13.948;2023-09-08T07:23:13;14.13;;;7.40;;
3993;SDS011;2011;48.238;13.948;2023-09-08T07:25:40;14.97;;;7.67;;
3993;SDS011;2011;48.238;13.948;2023-09-08T07:28:13;11.17;;;6.90;;
3993;SDS011;2011;48.238;13.948;2023-09-08T07:30:40;13.30;;;7.63;;
3993;SDS011;2011;48.238;13.948;2023-09-08T07:33:07;13.53;;;7.67;;
3993;SDS011;2011;48.238;13.948;2023-09-08T07:35:36;13.80;;;6.60;;
3993;SDS011;2011;48.238;13.948;2023-09-08T07:38:03;16.20;;;8.00;;
3993;SDS011;2011;48.238;13.948;2023-09-08T07:40:31;12.10;;;6.93;;
3993;SDS011;2011;48.238;13.948;2023-09-08T07:42:58;26.17;;;7.40;;
3993;SDS011;2011;48.238;13.948;2023-09-08T07:45:27;14.30;;;7.60;;
3993;SDS011;2011;48.238;13.948;2023-09-08T07:47:53;11.07;;;7.13;;
3993;SDS011;2011;48.238;13.948;2023-09-08T07:50:21;12.90;;;7.63;;
3993;SDS011;2011;48.238;13.948;2023-09-08T07:52:50;15.23;;;7.27;;
3993;SDS011;2011;48.238;13.948;2023-09-08T07:55:18;15.90;;;7.20;;
3993;SDS011;2011;48.238;13.948;2023-09-08T07:57:48;15.67;;;7.70;;
3993;SDS011;2011;48.238;13.948;2023-09-08T08:00:16;14.90;;;7.10;;
3993;SDS011;2011;48.238;13.948;2023-09-08T08:02:46;14.37;;;7.43;;
3993;SDS011;2011;48.238;13.948;2023-09-08T08:05:15;12.97;;;7.47;;
3993;SDS011;2011;48.238;13.948;2023-09-08T08:07:42;12.63;;;7.10;;
3993;SDS011;2011;48.238;13.948;2023-09-08T08:10:10;17.07;;;8.07;;
3993;SDS011;2011;48.238;13.948;2023-09-08T08:12:38;14.80;;;6.83;;
3993;SDS011;2011;48.238;13.948;2023-09-08T08:15:06;17.53;;;7.40;;
3993;SDS011;2011;48.238;13.948;2023-09-08T08:17:35;13.20;;;7.70;;
3993;SDS011;2011;48.238;13.948;2023-09-08T08:20:04;20.07;;;7.17;;
3993;SDS011;2011;48.238;13.948;2023-09-08T08:22:34;17.30;;;7.70;;
3993;SDS011;2011;48.238;13.948;2023-09-08T08:25:01;15.70;;;7.10;;
3993;SDS011;2011;48.238;13.948;2023-09-08T08:27:29;16.57;;;8.03;;
3993;SDS011;2011;48.238;13.948;2023-09-08T08:29:57;23.53;;;8.10;;
3993;SDS011;2011;48.238;13.948;2023-09-08T08:32:26;15.07;;;6.70;;
3993;SDS011;2011;48.238;13.948;2023-09-08T08:34:53;22.93;;;7.93;;
3993;SDS011;2011;48.238;13.948;2023-09-08T08:37:22;14.57;;;8.20;;
3993;SDS011;2011;48.238;13.948;2023-09-08T08:39:49;16.47;;;8.10;;
3993;SDS011;2011;48.238;13.948;2023-09-08T08:42:16;22.03;;;7.63;;
3993;SDS011;2011;48.238;13.948;2023-09-08T08:44:47;13.53;;;7.90;;
3993;SDS011;2011;48.238;13.948;2023-09-08T08:47:15;13.77;;;6.90;;
3993;SDS011;2011;48.238;13.948;2023-09-08T08:49:43;18.50;;;6.20;;
3993;SDS011;2011;48.238;13.948;2023-09-08T08:52:12;17.33;;;7.20;;
3993;SDS011;2011;48.238;13.948;2023-09-08T08:54:42;13.20;;;6.73;;
3993;SDS011;2011;48.238;13.948;2023-09-08T08:57:11;15.80;;;6.30;;
3993;SDS011;2011;48.238;13.948;2023-09-08T08:59:38;18.63;;;7.00;;
3993;SDS011;2011;48.238;13.948;2023-09-08T09:02:06;17.80;;;6.50;;
3993;SDS011;2011;48.238;13.948;2023-09-08T09:04:36;12.03;;;6.67;;
3993;SDS011;2011;48.238;13.948;2023-09-08T09:07:04;11.20;;;6.20;;
3993;SDS011;2011;48.238;13.948;2023-09-08T09:09:32;10.53;;;6.00;;
3993;SDS011;2011;48.238;13.948;2023-09-08T09:12:01;14.03;;;6.20;;
3993;SDS011;2011;48.238;13.948;2023-09-08T09:14:28;17.10;;;5.83;;
3993;SDS011;2011;48.238;13.948;2023-09-08T09:16:58;12.30;;;5.63;;
3993;SDS011;2011;48.238;13.948;2023-09-08T09:19:26;12.20;;;5.80;;
3993;SDS011;2011;48.238;13.948;2023-09-08T09:21:55;11.60;;;5.60;;
3993;SDS011;2011;48.238;13.948;2023-09-08T09:24:29;11.43;;;5.23;;
3993;SDS011;2011;48.238;13.948;2023-09-08T09:26:58;10.20;;;5.53;;
3993;SDS011;2011;48.238;13.948;2023-09-08T09:29:26;11.13;;;5.83;;
3993;SDS011;2011;48.238;13.948;2023-09-08T09:31:55;13.33;;;6.80;;
3993;SDS011;2011;48.238;13.948;2023-09-08T09:34:23;15.90;;;6.03;;
3993;SDS011;2011;48.238;13.948;2023-09-08T09:36:50;12.10;;;5.60;;
3993;SDS011;2011;48.238;13.948;2023-09-08T09:39:17;13.43;;;5.87;;
3993;SDS011;2011;48.238;13.948;2023-09-08T09:41:45;16.90;;;6.17;;
3993;SDS011;2011;48.238;13.948;2023-09-08T09:44:13;12.00;;;6.07;;
3993;SDS011;2011;48.238;13.948;2023-09-08T09:46:44;18.93;;;6.10;;
3993;SDS011;2011;48.238;13.948;2023-09-08T09:49:12;9.10;;;5.53;;
3993;SDS011;2011;48.238;13.948;2023-09-08T09:51:40;13.70;;;5.90;;
3993;SDS011;2011;48.238;13.948;2023-09-08T09:54:08;13.93;;;6.10;;
3993;SDS011;2011;48.238;13.948;2023-09-08T09:56:36;9.03;;;5.57;;
3993;SDS011;2011;48.238;13.948;2023-09-08T09:59:04;13.60;;;5.20;;
3993;SDS011;2011;48.238;13.948;2023-09-08T10:01:34;11.83;;;6.50;;
3993;SDS011;2011;48.238;13.948;2023-09-08T10:04:04;11.20;;;5.73;;
3993;SDS011;2011;48.238;13.948;2023-09-08T10:06:31;14.07;;;5.37;;
3993;SDS011;2011;48.238;13.948;2023-09-08T10:08:59;13.37;;;6.50;;
3993;SDS011;2011;48.238;13.948;2023-09-08T10:11:29;11.20;;;5.83;;
3993;SDS011;2011;48.238;13.948;2023-09-08T10:14:01;8.90;;;5.30;;
3993;SDS011;2011;48.238;13.948;2023-09-08T10:16:29;14.33;;;5.87;;
3993;SDS011;2011;48.238;13.948;2023-09-08T10:19:01;9.33;;;5.40;;
3993;SDS011;2011;48.238;13.948;2023-09-08T10:21:34;22.77;;;6.20;;
3993;SDS011;2011;48.238;13.948;2023-09-08T10:24:07;10.90;;;5.67;;
3993;SDS011;2011;48.238;13.948;2023-09-08T10:26:41;10.97;;;5.87;;
3993;SDS011;2011;48.238;13.948;2023-09-08T10:29:11;12.60;;;5.97;;
3993;SDS011;2011;48.238;13.948;2023-09-08T10:31:39;14.07;;;5.73;;
3993;SDS011;2011;48.238;13.948;2023-09-08T10:34:08;10.30;;;5.13;;
3993;SDS011;2011;48.238;13.948;2023-09-08T10:36:35;14.60;;;5.87;;
3993;SDS011;2011;48.238;13.948;2023-09-08T10:45:00;17.43;;;5.37;;
3993;SDS011;2011;48.238;13.948;2023-09-08T10:47:31;12.60;;;5.90;;
3993;SDS011;2011;48.238;13.948;2023-09-08T10:50:00;14.83;;;6.33;;
3993;SDS011;2011;48.238;13.948;2023-09-08T10:52:28;10.47;;;5.70;;
3993;SDS011;2011;48.238;13.948;2023-09-08T10:54:58;15.40;;;5.93;;
3993;SDS011;2011;48.238;13.948;2023-09-08T10:57:25;13.30;;;5.57;;
3993;SDS011;2011;48.238;13.948;2023-09-08T10:59:56;13.43;;;5.77;;
3993;SDS011;2011;48.238;13.948;2023-09-08T11:02:35;11.07;;;5.67;;
3993;SDS011;2011;48.238;13.948;2023-09-08T11:05:05;10.67;;;5.20;;
3993;SDS011;2011;48.238;13.948;2023-09-08T11:07:35;11.10;;;6.10;;
3993;SDS011;2011;48.238;13.948;2023-09-08T11:10:02;16.47;;;6.00;;
3993;SDS011;2011;48.238;13.948;2023-09-08T11:12:29;11.83;;;6.00;;
3993;SDS011;2011;48.238;13.948;2023-09-08T11:14:57;14.73;;;5.90;;
3993;SDS011;2011;48.238;13.948;2023-09-08T11:17:26;16.13;;;6.40;;
3993;SDS011;2011;48.238;13.948;2023-09-08T11:19:54;9.80;;;5.47;;
3993;SDS011;2011;48.238;13.948;2023-09-08T11:22:24;12.40;;;6.10;;
3993;SDS011;2011;48.238;13.948;2023-09-08T11:24:52;7.80;;;4.57;;
3993;SDS011;2011;48.238;13.948;2023-09-08T11:27:22;14.30;;;6.30;;
3993;SDS011;2011;48.238;13.948;2023-09-08T11:29:49;11.13;;;5.63;;
3993;SDS011;2011;48.238;13.948;2023-09-08T11:32:17;19.47;;;5.47;;
3993;SDS011;2011;48.238;13.948;2023-09-08T11:34:44;14.60;;;5.60;;
3993;SDS011;2011;48.238;13.948;2023-09-08T11:37:11;10.57;;;5.27;;
3993;SDS011;2011;48.238;13.948;2023-09-08T11:39:42;11.30;;;5.90;;
3993;SDS011;2011;48.238;13.948;2023-09-08T11:42:12;10.57;;;5.30;;
3993;SDS011;2011;48.238;13.948;2023-09-08T11:44:40;14.70;;;5.40;;
3993;SDS011;2011;48.238;13.948;2023-09-08T11:47:08;21.70;;;5.50;;
3993;SDS011;2011;48.238;13.948;2023-09-08T11:49:36;16.07;;;5.00;;
3993;SDS011;2011;48.238;13.948;2023-09-08T11:52:04;8.93;;;4.93;;
3993;SDS011;2011;48.238;13.948;2023-09-08T11:54:31;7.90;;;4.50;;
3993;SDS011;2011;48.238;13.948;2023-09-08T11:57:01;8.40;;;5.40;;
3993;SDS011;2011;48.238;13.948;2023-09-08T11:59:30;11.83;;;4.83;;
3993;SDS011;2011;48.238;13.948;2023-09-08T12:01:58;13.83;;;5.30;;
3993;SDS011;2011;48.238;13.948;2023-09-08T12:04:26;12.63;;;4.90;;
3993;SDS011;2011;48.238;13.948;2023-09-08T12:06:53;9.47;;;5.40;;
3993;SDS011;2011;48.238;13.948;2023-09-08T12:09:21;9.40;;;5.00;;
3993;SDS011;2011;48.238;13.948;2023-09-08T12:11:49;18.23;;;4.83;;
3993;SDS011;2011;48.238;13.948;2023-09-08T12:14:17;8.50;;;4.30;;
3993;SDS011;2011;48.238;13.948;2023-09-08T12:16:44;9.47;;;4.60;;
3993;SDS011;2011;48.238;13.948;2023-09-08T12:21:56;9.77;;;5.37;;
3993;SDS011;2011;48.238;13.948;2023-09-08T12:24:45;8.73;;;4.83;;
3993;SDS011;2011;48.238;13.948;2023-09-08T12:27:13;7.00;;;4.50;;
3993;SDS011;2011;48.238;13.948;2023-09-08T12:29:42;7.20;;;4.37;;
3993;SDS011;2011;48.238;13.948;2023-09-08T12:32:17;6.77;;;4.23;;
3993;SDS011;2011;48.238;13.948;2023-09-08T12:34:45;7.80;;;4.50;;
3993;SDS011;2011;48.238;13.948;2023-09-08T12:37:11;7.77;;;4.33;;
3993;SDS011;2011;48.238;13.948;2023-09-08T12:39:39;13.70;;;4.43;;
3993;SDS011;2011;48.238;13.948;2023-09-08T12:42:06;7.97;;;4.07;;
3993;SDS011;2011;48.238;13.948;2023-09-08T12:44:33;8.40;;;4.70;;
3993;SDS011;2011;48.238;13.948;2023-09-08T12:47:01;8.13;;;4.57;;
3993;SDS011;2011;48.238;13.948;2023-09-08T12:49:28;15.20;;;5.10;;
3993;SDS011;2011;48.238;13.948;2023-09-08T12:51:55;9.13;;;4.20;;
3993;SDS011;2011;48.238;13.948;2023-09-08T12:54:22;7.30;;;4.10;;
3993;SDS011;2011;48.238;13.948;2023-09-08T12:56:49;7.90;;;4.43;;
3993;SDS011;2011;48.238;13.948;2023-09-08T12:59:16;8.53;;;4.30;;
3993;SDS011;2011;48.238;13.948;2023-09-08T13:01:43;12.20;;;4.13;;
3993;SDS011;2011;48.238;13.948;2023-09-08T13:04:11;7.77;;;4.60;;
3993;SDS011;2011;48.238;13.948;2023-09-08T13:06:38;7.50;;;4.20;;
3993;SDS011;2011;48.238;13.948;2023-09-08T13:09:05;8.10;;;4.33;;
3993;SDS011;2011;48.238;13.948;2023-09-08T13:11:33;7.50;;;4.60;;
3993;SDS011;2011;48.238;13.948;2023-09-08T13:14:00;7.47;;;4.10;;
3993;SDS011;2011;48.238;13.948;2023-09-08T13:16:27;8.30;;;4.57;;
3993;SDS011;2011;48.238;13.948;2023-09-08T13:18:54;8.07;;;3.80;;
3993;SDS011;2011;48.238;13.948;2023-09-08T13:21:22;8.47;;;4.57;;
3993;SDS011;2011;48.238;13.948;2023-09-08T13:23:49;7.43;;;4.53;;
3993;SDS011;2011;48.238;13.948;2023-09-08T13:26:16;7.50;;;4.23;;
3993;SDS011;2011;48.238;13.948;2023-09-08T13:28:43;8.30;;;4.17;;
3993;SDS011;2011;48.238;13.948;2023-09-08T13:31:10;9.60;;;4.10;;
3993;SDS011;2011;48.238;13.948;2023-09-08T13:33:37;16.43;;;4.40;;
3993;SDS011;2011;48.238;13.948;2023-09-08T13:36:04;10.67;;;4.50;;
3993;SDS011;2011;48.238;13.948;2023-09-08T13:38:32;7.37;;;4.07;;
3993;SDS011;2011;48.238;13.948;2023-09-08T13:40:59;10.90;;;4.60;;
3993;SDS011;2011;48.238;13.948;2023-09-08T13:43:26;7.47;;;4.60;;
3993;SDS011;2011;48.238;13.948;2023-09-08T13:45:53;9.30;;;4.10;;
3993;SDS011;2011;48.238;13.948;2023-09-08T13:48:20;11.73;;;4.53;;
3993;SDS011;2011;48.238;13.948;2023-09-08T13:50:47;9.50;;;4.40;;
3993;SDS011;2011;48.238;13.948;2023-09-08T13:53:14;8.27;;;4.27;;
3993;SDS011;2011;48.238;13.948;2023-09-08T13:55:42;7.70;;;4.30;;
3993;SDS011;2011;48.238;13.948;2023-09-08T13:58:09;8.10;;;4.23;;
3993;SDS011;2011;48.238;13.948;2023-09-08T14:00:36;9.30;;;4.10;;
3993;SDS011;2011;48.238;13.948;2023-09-08T14:03:04;7.90;;;4.20;;
3993;SDS011;2011;48.238;13.948;2023-09-08T14:05:31;10.10;;;4.47;;
3993;SDS011;2011;48.238;13.948;2023-09-08T14:07:58;8.80;;;4.40;;
3993;SDS011;2011;48.238;13.948;2023-09-08T14:10:24;16.40;;;4.90;;
3993;SDS011;2011;48.238;13.948;2023-09-08T14:12:53;9.30;;;4.63;;
3993;SDS011;2011;48.238;13.948;2023-09-08T14:15:20;8.07;;;4.57;;
3993;SDS011;2011;48.238;13.948;2023-09-08T14:17:47;10.43;;;3.90;;
3993;SDS011;2011;48.238;13.948;2023-09-08T14:20:14;7.30;;;4.50;;
3993;SDS011;2011;48.238;13.948;2023-09-08T14:22:41;7.47;;;4.33;;
3993;SDS011;2011;48.238;13.948;2023-09-08T14:25:08;8.00;;;4.30;;
3993;SDS011;2011;48.238;13.948;2023-09-08T14:27:35;14.63;;;4.60;;
3993;SDS011;2011;48.238;13.948;2023-09-08T14:30:04;7.53;;;4.07;;
3993;SDS011;2011;48.238;13.948;2023-09-08T14:32:32;10.27;;;4.70;;
3993;SDS011;2011;48.238;13.948;2023-09-08T14:34:59;10.17;;;4.50;;
3993;SDS011;2011;48.238;13.948;2023-09-08T14:37:25;8.40;;;4.10;;
3993;SDS011;2011;48.238;13.948;2023-09-08T14:39:52;8.23;;;4.17;;
3993;SDS011;2011;48.238;13.948;2023-09-08T14:42:19;9.10;;;4.03;;
3993;SDS011;2011;48.238;13.948;2023-09-08T14:44:46;8.30;;;4.03;;
3993;SDS011;2011;48.238;13.948;2023-09-08T14:47:17;13.43;;;4.57;;
3993;SDS011;2011;48.238;13.948;2023-09-08T14:49:44;9.07;;;4.77;;
3993;SDS011;2011;48.238;13.948;2023-09-08T14:52:11;10.13;;;4.30;;
3993;SDS011;2011;48.238;13.948;2023-09-08T14:54:39;10.10;;;4.70;;
3993;SDS011;2011;48.238;13.948;2023-09-08T14:57:06;8.60;;;4.57;;
3993;SDS011;2011;48.238;13.948;2023-09-08T14:59:33;8.80;;;4.43;;
3993;SDS011;2011;48.238;13.948;2023-09-08T15:02:00;14.90;;;4.73;;
3993;SDS011;2011;48.238;13.948;2023-09-08T15:04:28;8.57;;;4.27;;